sensor_id;sensor_type;location;lat;lon;timestamp;pressure;altitude;pressure_sealevel;temperature;humidity
59240;BME280;45010;53.640;10.578;2023-05-09T00:02:04;101500.47;;;23.87;32.29
59240;BME280;45010;53.640;10.578;2023-05-09T00:05:05;101494.53;;;23.78;32.21
59240;BME280;45010;53.640;10.578;2023-05-09T00:08:06;101512.16;;;23.93;32.17
59240;BME280;45010;53.640;10.578;2023-05-09T00:11:07;101511.13;;;23.94;31.98
59240;BME280;45010;53.640;10.578;2023-05-09T00:14:07;101479.97;;;23.74;32.16
59240;BME280;45010;53.640;10.578;2023-05-09T00:17:08;101509.50;;;23.93;32.27
59240;BME280;45010;53.640;10.578;2023-05-09T00:20:08;101494.53;;;23.78;32.06
59240;BME280;45010;53.640;10.578;2023-05-09T00:23:11;101517.47;;;23.93;32.40
59240;BME280;45010;53.640;10.578;2023-05-09T00:26:11;101507.63;;;23.87;32.42
59240;BME280;45010;53.640;10.578;2023-05-09T00:29:11;101516.66;;;23.92;32.46
59240;BME280;45010;53.640;10.578;2023-05-09T00:32:12;101509.50;;;23.86;32.42
59240;BME280;45010;53.640;10.578;2023-05-09T00:35:12;101522.81;;;23.93;32.05
59240;BME280;45010;53.640;10.578;2023-05-09T00:38:12;101521.97;;;23.92;32.26
59240;BME280;45010;53.640;10.578;2023-05-09T00:41:13;101515.81;;;23.92;32.09
59240;BME280;45010;53.640;10.578;2023-05-09T00:44:13;101514.81;;;23.93;32.31
59240;BME280;45010;53.640;10.578;2023-05-09T00:47:14;101506.81;;;23.93;32.02
59240;BME280;45010;53.640;10.578;2023-05-09T00:50:14;101501.50;;;23.93;32.34
59240;BME280;45010;53.640;10.578;2023-05-09T00:53:15;101491.63;;;23.94;32.10
59240;BME280;45010;53.640;10.578;2023-05-09T00:56:15;101463.81;;;23.76;32.35
59240;BME280;45010;53.640;10.578;2023-05-09T00:59:16;101480.97;;;23.94;32.31
59240;BME280;45010;53.640;10.578;2023-05-09T01:02:17;101489.19;;;23.92;32.41
59240;BME280;45010;53.640;10.578;2023-05-09T01:05:19;101474.03;;;23.86;31.94
59240;BME280;45010;53.640;10.578;2023-05-09T01:08:36;101473.00;;;23.87;32.27
59240;BME280;45010;53.640;10.578;2023-05-09T01:11:44;101470.34;;;23.87;32.33
59240;BME280;45010;53.640;10.578;2023-05-09T01:15:00;101467.66;;;23.87;32.07
59240;BME280;45010;53.640;10.578;2023-05-09T01:18:16;101474.03;;;23.92;32.08
59240;BME280;45010;53.640;10.578;2023-05-09T01:21:25;101474.03;;;23.92;31.95
59240;BME280;45010;53.640;10.578;2023-05-09T01:24:51;101469.53;;;23.93;32.08
59240;BME280;45010;53.640;10.578;2023-05-09T01:30:55;101457.22;;;23.92;32.26
59240;BME280;45010;53.640;10.578;2023-05-09T01:33:58;101460.72;;;23.92;32.25
59240;BME280;45010;53.640;10.578;2023-05-09T01:37:03;101450.25;;;23.91;32.25
59240;BME280;45010;53.640;10.578;2023-05-09T01:40:13;101442.06;;;23.86;32.41
59240;BME280;45010;53.640;10.578;2023-05-09T01:43:15;101441.22;;;23.92;32.18
59240;BME280;45010;53.640;10.578;2023-05-09T01:46:17;101441.22;;;23.92;32.05
59240;BME280;45010;53.640;10.578;2023-05-09T01:49:19;101442.88;;;23.93;32.13
59240;BME280;45010;53.640;10.578;2023-05-09T01:52:20;101435.91;;;23.92;32.19
59240;BME280;45010;53.640;10.578;2023-05-09T01:55:24;101435.91;;;23.92;32.07
59240;BME280;45010;53.640;10.578;2023-05-09T01:58:25;101435.09;;;23.91;32.11
59240;BME280;45010;53.640;10.578;2023-05-09T02:01:27;101428.94;;;23.91;32.09
59240;BME280;45010;53.640;10.578;2023-05-09T02:04:29;101427.91;;;23.92;32.34
59240;BME280;45010;53.640;10.578;2023-05-09T02:07:30;101425.25;;;23.92;32.30
59240;BME280;45010;53.640;10.578;2023-05-09T02:10:31;101397.41;;;23.74;32.14
59240;BME280;45010;53.640;10.578;2023-05-09T02:13:32;101419.13;;;23.91;32.19
59240;BME280;45010;53.640;10.578;2023-05-09T02:16:33;101428.94;;;23.91;32.34
59240;BME280;45010;53.640;10.578;2023-05-09T02:19:34;101422.81;;;23.90;32.08
59240;BME280;45010;53.640;10.578;2023-05-09T02:22:35;101401.91;;;23.81;32.14
59240;BME280;45010;53.640;10.578;2023-05-09T02:25:37;101427.31;;;23.90;31.96
59240;BME280;45010;53.640;10.578;2023-05-09T02:28:38;101392.09;;;23.74;32.10
59240;BME280;45010;53.640;10.578;2023-05-09T02:31:41;101415.81;;;23.89;32.33
59240;BME280;45010;53.640;10.578;2023-05-09T02:34:43;101418.72;;;23.88;32.14
59240;BME280;45010;53.640;10.578;2023-05-09T02:37:44;101406.84;;;23.84;32.21
59240;BME280;45010;53.640;10.578;2023-05-09T02:40:46;101421.16;;;23.89;32.02
59240;BME280;45010;53.640;10.578;2023-05-09T02:43:46;101411.31;;;23.90;32.12
59240;BME280;45010;53.640;10.578;2023-05-09T02:46:46;101419.31;;;23.90;32.00
59240;BME280;45010;53.640;10.578;2023-05-09T02:49:47;101405.16;;;23.89;32.21
59240;BME280;45010;53.640;10.578;2023-05-09T02:52:47;101404.97;;;23.91;31.94
59240;BME280;45010;53.640;10.578;2023-05-09T02:55:48;101406.00;;;23.90;31.86
59240;BME280;45010;53.640;10.578;2023-05-09T02:58:48;101406.00;;;23.90;32.13
59240;BME280;45010;53.640;10.578;2023-05-09T03:01:50;101403.34;;;23.90;32.00
59240;BME280;45010;53.640;10.578;2023-05-09T03:04:51;101399.03;;;23.89;32.02
59240;BME280;45010;53.640;10.578;2023-05-09T03:07:51;101393.72;;;23.89;32.00
59240;BME280;45010;53.640;10.578;2023-05-09T03:10:51;101387.56;;;23.88;32.13
59240;BME280;45010;53.640;10.578;2023-05-09T03:13:52;101384.09;;;23.88;31.97
59240;BME280;45010;53.640;10.578;2023-05-09T03:16:52;101379.75;;;23.87;31.97
59240;BME280;45010;53.640;10.578;2023-05-09T03:19:52;101384.09;;;23.88;32.24
59240;BME280;45010;53.640;10.578;2023-05-09T03:22:53;101386.75;;;23.88;32.56
59240;BME280;45010;53.640;10.578;2023-05-09T03:25:53;101374.28;;;23.82;32.03
59240;BME280;45010;53.640;10.578;2023-05-09T03:28:53;101384.28;;;23.86;32.03
59240;BME280;45010;53.640;10.578;2023-05-09T03:31:54;101385.09;;;23.87;32.08
59240;BME280;45010;53.640;10.578;2023-05-09T03:34:54;101374.88;;;23.84;32.21
59240;BME280;45010;53.640;10.578;2023-05-09T03:37:54;101380.78;;;23.86;32.11
59240;BME280;45010;53.640;10.578;2023-05-09T03:40:55;101379.75;;;23.87;32.21
59240;BME280;45010;53.640;10.578;2023-05-09T03:43:55;101381.63;;;23.86;32.08
59240;BME280;45010;53.640;10.578;2023-05-09T03:46:55;101372.00;;;23.85;32.22
59240;BME280;45010;53.640;10.578;2023-05-09T03:49:56;101369.34;;;23.85;32.17
59240;BME280;45010;53.640;10.578;2023-05-09T03:52:56;101372.81;;;23.86;32.15
59240;BME280;45010;53.640;10.578;2023-05-09T03:55:56;101372.81;;;23.86;32.15
59240;BME280;45010;53.640;10.578;2023-05-09T03:58:57;101371.19;;;23.85;32.04
59240;BME280;45010;53.640;10.578;2023-05-09T04:01:57;101363.19;;;23.85;32.23
59240;BME280;45010;53.640;10.578;2023-05-09T04:04:57;101360.53;;;23.85;32.21
59240;BME280;45010;53.640;10.578;2023-05-09T04:07:58;101345.38;;;23.78;31.89
59240;BME280;45010;53.640;10.578;2023-05-09T04:10:58;101358.88;;;23.84;32.03
59240;BME280;45010;53.640;10.578;2023-05-09T04:13:59;101345.38;;;23.78;32.21
59240;BME280;45010;53.640;10.578;2023-05-09T04:16:59;101349.88;;;23.85;32.11
59240;BME280;45010;53.640;10.578;2023-05-09T04:19:59;101339.22;;;23.85;32.25
59240;BME280;45010;53.640;10.578;2023-05-09T04:23:00;101333.88;;;23.85;32.09
59240;BME280;45010;53.640;10.578;2023-05-09T04:26:00;101326.94;;;23.84;32.07
59240;BME280;45010;53.640;10.578;2023-05-09T04:29:00;101333.09;;;23.84;32.25
59240;BME280;45010;53.640;10.578;2023-05-09T04:32:01;101328.75;;;23.83;32.03
59240;BME280;45010;53.640;10.578;2023-05-09T04:35:01;101321.59;;;23.84;32.29
59240;BME280;45010;53.640;10.578;2023-05-09T04:38:03;101314.66;;;23.76;32.29
59240;BME280;45010;53.640;10.578;2023-05-09T04:41:04;101322.44;;;23.84;32.17
59240;BME280;45010;53.640;10.578;2023-05-09T04:44:04;101312.56;;;23.85;32.28
59240;BME280;45010;53.640;10.578;2023-05-09T04:47:04;101317.09;;;23.84;32.26
59240;BME280;45010;53.640;10.578;2023-05-09T04:50:06;101316.28;;;23.84;32.09
59240;BME280;45010;53.640;10.578;2023-05-09T04:53:07;101318.94;;;23.84;31.98
59240;BME280;45010;53.640;10.578;2023-05-09T04:56:08;101321.59;;;23.84;32.15
59240;BME280;45010;53.640;10.578;2023-05-09T04:59:08;101319.97;;;23.83;32.27
59240;BME280;45010;53.640;10.578;2023-05-09T05:02:08;101320.78;;;23.83;32.32
59240;BME280;45010;53.640;10.578;2023-05-09T05:05:09;101322.44;;;23.84;32.03
59240;BME280;45010;53.640;10.578;2023-05-09T05:08:10;101315.44;;;23.83;31.96
59240;BME280;45010;53.640;10.578;2023-05-09T05:11:10;101320.78;;;23.83;32.11
59240;BME280;45010;53.640;10.578;2023-05-09T05:14:10;101309.72;;;23.80;32.18
59240;BME280;45010;53.640;10.578;2023-05-09T05:17:11;101310.94;;;23.84;32.03
59240;BME280;45010;53.640;10.578;2023-05-09T05:20:11;101312.56;;;23.85;32.04
59240;BME280;45010;53.640;10.578;2023-05-09T05:23:11;101307.25;;;23.85;31.95
59240;BME280;45010;53.640;10.578;2023-05-09T05:26:12;101306.22;;;23.86;32.22
59240;BME280;45010;53.640;10.578;2023-05-09T05:29:12;101286.19;;;23.76;32.25
59240;BME280;45010;53.640;10.578;2023-05-09T05:32:12;101298.22;;;23.86;32.60
59240;BME280;45010;53.640;10.578;2023-05-09T05:35:13;101298.22;;;23.86;32.14
59240;BME280;45010;53.640;10.578;2023-05-09T05:38:13;101291.06;;;23.86;32.28
59240;BME280;45010;53.640;10.578;2023-05-09T05:41:13;101288.59;;;23.85;32.41
59240;BME280;45010;53.640;10.578;2023-05-09T05:44:14;101287.56;;;23.86;32.22
59240;BME280;45010;53.640;10.578;2023-05-09T05:47:15;101280.63;;;23.85;32.24
59240;BME280;45010;53.640;10.578;2023-05-09T05:50:15;101280.63;;;23.85;32.17
59240;BME280;45010;53.640;10.578;2023-05-09T05:53:15;101267.09;;;23.80;32.03
59240;BME280;45010;53.640;10.578;2023-05-09T05:56:15;101261.78;;;23.80;32.20
59240;BME280;45010;53.640;10.578;2023-05-09T05:59:16;101266.06;;;23.87;32.07
59240;BME280;45010;53.640;10.578;2023-05-09T06:02:16;101269.75;;;23.86;32.03
59240;BME280;45010;53.640;10.578;2023-05-09T06:05:17;101274.88;;;23.88;32.37
59240;BME280;45010;53.640;10.578;2023-05-09T06:08:17;101257.28;;;23.80;32.25
59240;BME280;45010;53.640;10.578;2023-05-09T06:11:17;101258.09;;;23.81;32.16
59240;BME280;45010;53.640;10.578;2023-05-09T06:14:18;101262.56;;;23.87;32.01
59240;BME280;45010;53.640;10.578;2023-05-09T06:17:18;101260.94;;;23.86;32.44
59240;BME280;45010;53.640;10.578;2023-05-09T06:20:18;101259.09;;;23.86;32.24
59240;BME280;45010;53.640;10.578;2023-05-09T06:23:19;101255.59;;;23.86;32.23
59240;BME280;45010;53.640;10.578;2023-05-09T06:26:21;101250.28;;;23.86;32.30
59240;BME280;45010;53.640;10.578;2023-05-09T06:29:22;101244.94;;;23.86;32.27
59240;BME280;45010;53.640;10.578;2023-05-09T06:32:22;101235.13;;;23.86;32.17
59240;BME280;45010;53.640;10.578;2023-05-09T06:35:24;101224.47;;;23.86;32.00
59240;BME280;45010;53.640;10.578;2023-05-09T06:38:24;101219.94;;;23.87;32.44
59240;BME280;45010;53.640;10.578;2023-05-09T06:41:24;101217.28;;;23.87;32.33
59240;BME280;45010;53.640;10.578;2023-05-09T06:44:25;101214.63;;;23.87;32.27
59240;BME280;45010;53.640;10.578;2023-05-09T06:47:25;101202.16;;;23.81;32.44
59240;BME280;45010;53.640;10.578;2023-05-09T06:50:26;101216.28;;;23.88;32.42
59240;BME280;45010;53.640;10.578;2023-05-09T06:53:26;101221.59;;;23.88;32.13
59240;BME280;45010;53.640;10.578;2023-05-09T06:56:26;101214.63;;;23.87;32.18
59240;BME280;45010;53.640;10.578;2023-05-09T06:59:27;101210.94;;;23.88;32.42
59240;BME280;45010;53.640;10.578;2023-05-09T07:02:27;101208.28;;;23.88;32.34
59240;BME280;45010;53.640;10.578;2023-05-09T07:05:28;101210.94;;;23.88;32.36
59240;BME280;45010;53.640;10.578;2023-05-09T07:08:28;101207.25;;;23.89;32.21
59240;BME280;45010;53.640;10.578;2023-05-09T07:11:33;101196.78;;;23.87;32.10
59240;BME280;45010;53.640;10.578;2023-05-09T07:14:34;101187.84;;;23.82;32.19
59240;BME280;45010;53.640;10.578;2023-05-09T07:17:35;101193.94;;;23.89;32.42
59240;BME280;45010;53.640;10.578;2023-05-09T07:20:35;101194.97;;;23.88;32.29
59240;BME280;45010;53.640;10.578;2023-05-09T07:23:35;101194.97;;;23.88;32.38
59240;BME280;45010;53.640;10.578;2023-05-09T07:26:36;101200.28;;;23.88;32.17
59240;BME280;45010;53.640;10.578;2023-05-09T07:29:36;101194.97;;;23.88;32.37
59240;BME280;45010;53.640;10.578;2023-05-09T07:32:36;101194.13;;;23.87;32.44
59240;BME280;45010;53.640;10.578;2023-05-09T07:35:37;101189.63;;;23.88;32.52
59240;BME280;45010;53.640;10.578;2023-05-09T07:38:38;101190.44;;;23.88;32.31
59240;BME280;45010;53.640;10.578;2023-05-09T07:41:39;101184.06;;;23.89;32.34
59240;BME280;45010;53.640;10.578;2023-05-09T07:44:39;101182.22;;;23.90;32.07
59240;BME280;45010;53.640;10.578;2023-05-09T07:47:39;101174.66;;;23.87;32.41
59240;BME280;45010;53.640;10.578;2023-05-09T07:50:40;101171.56;;;23.90;32.56
59240;BME280;45010;53.640;10.578;2023-05-09T07:53:40;101160.94;;;23.90;32.37
59240;BME280;45010;53.640;10.578;2023-05-09T07:56:40;101166.25;;;23.90;32.49
59240;BME280;45010;53.640;10.578;2023-05-09T07:59:41;101158.25;;;23.90;32.55
59240;BME280;45010;53.640;10.578;2023-05-09T08:02:41;101167.09;;;23.90;32.35
59240;BME280;45010;53.640;10.578;2023-05-09T08:05:42;101153.97;;;23.89;32.56
59240;BME280;45010;53.640;10.578;2023-05-09T08:08:42;101155.59;;;23.90;32.62
59240;BME280;45010;53.640;10.578;2023-05-09T08:11:43;101151.91;;;23.91;32.49
59240;BME280;45010;53.640;10.578;2023-05-09T08:14:43;101144.13;;;23.89;32.63
59240;BME280;45010;53.640;10.578;2023-05-09T08:17:43;101142.28;;;23.90;32.26
59240;BME280;45010;53.640;10.578;2023-05-09T08:20:44;101135.91;;;23.91;32.35
59240;BME280;45010;53.640;10.578;2023-05-09T08:23:44;101132.22;;;23.92;32.30
59240;BME280;45010;53.640;10.578;2023-05-09T08:26:45;101132.22;;;23.92;32.54
59240;BME280;45010;53.640;10.578;2023-05-09T08:29:45;101127.72;;;23.92;32.62
59240;BME280;45010;53.640;10.578;2023-05-09T08:32:45;101126.88;;;23.92;32.49
59240;BME280;45010;53.640;10.578;2023-05-09T08:35:50;101116.22;;;23.92;32.38
59240;BME280;45010;53.640;10.578;2023-05-09T08:38:50;101113.56;;;23.92;32.27
59240;BME280;45010;53.640;10.578;2023-05-09T08:41:54;101116.22;;;23.92;32.63
59240;BME280;45010;53.640;10.578;2023-05-09T08:44:57;101109.06;;;23.92;32.74
59240;BME280;45010;53.640;10.578;2023-05-09T08:47:58;101105.56;;;23.92;32.55
59240;BME280;45010;53.640;10.578;2023-05-09T08:50:59;101107.22;;;23.93;32.40
59240;BME280;45010;53.640;10.578;2023-05-09T08:54:00;101101.91;;;23.93;32.35
59240;BME280;45010;53.640;10.578;2023-05-09T08:57:00;101091.25;;;23.93;32.57
59240;BME280;45010;53.640;10.578;2023-05-09T09:00:02;101088.41;;;23.88;32.64
59240;BME280;45010;53.640;10.578;2023-05-09T09:03:05;101087.53;;;23.94;32.21
59240;BME280;45010;53.640;10.578;2023-05-09T09:06:07;101074.22;;;23.94;32.35
59240;BME280;45010;53.640;10.578;2023-05-09T09:09:08;101087.53;;;23.94;32.41
59240;BME280;45010;53.640;10.578;2023-05-09T09:12:10;101075.25;;;23.93;32.36
59240;BME280;45010;53.640;10.578;2023-05-09T09:15:14;101076.72;;;23.89;32.40
59240;BME280;45010;53.640;10.578;2023-05-09T09:18:21;101068.91;;;23.94;32.37
59240;BME280;45010;53.640;10.578;2023-05-09T09:21:21;101068.91;;;23.94;32.48
59240;BME280;45010;53.640;10.578;2023-05-09T09:24:23;101067.84;;;23.95;32.65
59240;BME280;45010;53.640;10.578;2023-05-09T09:27:23;101059.28;;;23.93;32.42
59240;BME280;45010;53.640;10.578;2023-05-09T09:30:24;101047.59;;;23.94;32.69
59240;BME280;45010;53.640;10.578;2023-05-09T09:33:26;101042.09;;;23.89;32.40
59240;BME280;45010;53.640;10.578;2023-05-09T09:36:30;101055.59;;;23.94;32.49
59240;BME280;45010;53.640;10.578;2023-05-09T09:39:35;101038.56;;;23.95;32.46
59240;BME280;45010;53.640;10.578;2023-05-09T09:42:40;101023.13;;;23.78;32.58
59240;BME280;45010;53.640;10.578;2023-05-09T09:45:41;101042.25;;;23.94;32.49
59240;BME280;45010;53.640;10.578;2023-05-09T09:48:45;101023.28;;;23.84;32.58
59240;BME280;45010;53.640;10.578;2023-05-09T09:51:55;101028.94;;;23.94;32.60
59240;BME280;45010;53.640;10.578;2023-05-09T09:54:55;101026.13;;;23.89;32.67
59240;BME280;45010;53.640;10.578;2023-05-09T09:57:55;101027.91;;;23.95;32.28
59240;BME280;45010;53.640;10.578;2023-05-09T10:01:06;101025.25;;;23.95;32.29
59240;BME280;45010;53.640;10.578;2023-05-09T10:04:07;101016.19;;;23.96;32.51
59240;BME280;45010;53.640;10.578;2023-05-09T10:07:09;101010.06;;;23.96;32.34
59240;BME280;45010;53.640;10.578;2023-05-09T10:10:09;101016.19;;;23.96;32.40
59240;BME280;45010;53.640;10.578;2023-05-09T10:13:10;101001.09;;;23.90;32.57
59240;BME280;45010;53.640;10.578;2023-05-09T10:16:11;101006.59;;;23.95;32.45
59240;BME280;45010;53.640;10.578;2023-05-09T10:19:12;101009.25;;;23.95;32.41
59240;BME280;45010;53.640;10.578;2023-05-09T10:22:15;100998.59;;;23.95;32.70
59240;BME280;45010;53.640;10.578;2023-05-09T10:25:19;100995.94;;;23.95;32.45
59240;BME280;45010;53.640;10.578;2023-05-09T10:28:22;100990.44;;;23.90;32.55
59240;BME280;45010;53.640;10.578;2023-05-09T10:31:27;100999.19;;;23.97;32.58
59240;BME280;45010;53.640;10.578;2023-05-09T10:34:30;100996.53;;;23.97;32.73
59240;BME280;45010;53.640;10.578;2023-05-09T10:37:34;100994.91;;;23.96;32.61
59240;BME280;45010;53.640;10.578;2023-05-09T10:40:34;101000.22;;;23.96;32.67
59240;BME280;45010;53.640;10.578;2023-05-09T10:43:35;100989.56;;;23.96;32.87
59240;BME280;45010;53.640;10.578;2023-05-09T10:46:36;100989.56;;;23.96;32.79
59240;BME280;45010;53.640;10.578;2023-05-09T10:49:36;100981.56;;;23.96;32.75
59240;BME280;45010;53.640;10.578;2023-05-09T10:56:02;100969.88;;;23.97;32.68
59240;BME280;45010;53.640;10.578;2023-05-09T10:59:02;100953.09;;;23.97;32.75
59240;BME280;45010;53.640;10.578;2023-05-09T11:02:03;100944.28;;;23.96;32.93
59240;BME280;45010;53.640;10.578;2023-05-09T11:05:17;100932.59;;;23.97;32.92
59240;BME280;45010;53.640;10.578;2023-05-09T11:08:21;100927.25;;;23.97;32.86
59240;BME280;45010;53.640;10.578;2023-05-09T11:11:22;100929.91;;;23.97;32.87
59240;BME280;45010;53.640;10.578;2023-05-09T11:17:37;100921.94;;;23.97;33.03
59240;BME280;45010;53.640;10.578;2023-05-09T11:20:45;100916.59;;;23.97;32.87
59240;BME280;45010;53.640;10.578;2023-05-09T11:23:48;100913.94;;;23.97;33.09
59240;BME280;45010;53.640;10.578;2023-05-09T11:26:49;100908.59;;;23.97;32.88
59240;BME280;45010;53.640;10.578;2023-05-09T11:29:54;100889.66;;;23.87;32.92
59240;BME280;45010;53.640;10.578;2023-05-09T11:32:55;100902.25;;;23.98;33.07
59240;BME280;45010;53.640;10.578;2023-05-09T11:36:17;100896.91;;;23.98;33.00
59240;BME280;45010;53.640;10.578;2023-05-09T11:39:23;100856.97;;;23.80;32.87
59240;BME280;45010;53.640;10.578;2023-05-09T11:42:26;100881.97;;;23.97;32.96
59240;BME280;45010;53.640;10.578;2023-05-09T11:45:30;100865.25;;;23.90;32.99
59240;BME280;45010;53.640;10.578;2023-05-09T11:48:38;100866.59;;;23.99;32.99
59240;BME280;45010;53.640;10.578;2023-05-09T11:51:39;100858.47;;;23.94;32.77
59240;BME280;45010;53.640;10.578;2023-05-09T11:54:40;100851.50;;;23.93;33.11
59240;BME280;45010;53.640;10.578;2023-05-09T11:57:44;100857.63;;;23.94;33.39
59240;BME280;45010;53.640;10.578;2023-05-09T12:00:45;100866.59;;;23.99;32.87
59240;BME280;45010;53.640;10.578;2023-05-09T12:03:45;100827.38;;;23.88;33.14
59240;BME280;45010;53.640;10.578;2023-05-09T12:06:47;100843.41;;;24.00;32.87
59240;BME280;45010;53.640;10.578;2023-05-09T12:09:48;100831.97;;;23.99;33.08
59240;BME280;45010;53.640;10.578;2023-05-09T12:12:50;100821.97;;;23.95;32.97
59240;BME280;45010;53.640;10.578;2023-05-09T12:15:59;100802.53;;;23.94;33.25
59240;BME280;45010;53.640;10.578;2023-05-09T12:18:59;100813.31;;;23.99;33.16
59240;BME280;45010;53.640;10.578;2023-05-09T12:22:02;100812.28;;;24.00;32.93
59240;BME280;45010;53.640;10.578;2023-05-09T12:25:07;100816.56;;;24.01;33.12
59240;BME280;45010;53.640;10.578;2023-05-09T12:28:08;100808.78;;;24.00;32.98
59240;BME280;45010;53.640;10.578;2023-05-09T12:31:09;100777.94;;;23.92;33.25
59240;BME280;45010;53.640;10.578;2023-05-09T12:34:09;100793.63;;;24.00;33.13
59240;BME280;45010;53.640;10.578;2023-05-09T12:37:17;100798.97;;;24.00;33.05
59240;BME280;45010;53.640;10.578;2023-05-09T12:40:18;100788.31;;;24.00;33.08
59240;BME280;45010;53.640;10.578;2023-05-09T12:43:18;100793.63;;;24.00;33.20
59240;BME280;45010;53.640;10.578;2023-05-09T12:46:19;100788.31;;;24.00;33.28
59240;BME280;45010;53.640;10.578;2023-05-09T12:49:20;100774.84;;;23.95;33.22
59240;BME280;45010;53.640;10.578;2023-05-09T12:52:21;100793.63;;;24.00;33.28
59240;BME280;45010;53.640;10.578;2023-05-09T12:55:21;100784.59;;;24.01;33.09
59240;BME280;45010;53.640;10.578;2023-05-09T12:58:22;100778.44;;;24.01;33.28
59240;BME280;45010;53.640;10.578;2023-05-09T13:01:26;100771.97;;;23.97;33.24
59240;BME280;45010;53.640;10.578;2023-05-09T13:04:27;100768.47;;;23.96;33.30
59240;BME280;45010;53.640;10.578;2023-05-09T13:07:27;100783.56;;;24.02;33.08
59240;BME280;45010;53.640;10.578;2023-05-09T13:10:28;100772.91;;;24.02;33.27
59240;BME280;45010;53.640;10.578;2023-05-09T13:13:28;100770.22;;;24.02;33.22
59240;BME280;45010;53.640;10.578;2023-05-09T13:16:29;100758.75;;;24.02;33.40
59240;BME280;45010;53.640;10.578;2023-05-09T13:19:29;100765.94;;;24.01;33.12
59240;BME280;45010;53.640;10.578;2023-05-09T13:22:30;100764.91;;;24.02;33.24
59240;BME280;45010;53.640;10.578;2023-05-09T13:25:31;100769.19;;;24.03;33.65
59240;BME280;45010;53.640;10.578;2023-05-09T13:28:31;100762.81;;;24.04;32.91
59240;BME280;45010;53.640;10.578;2023-05-09T13:31:31;100766.53;;;24.03;33.18
59240;BME280;45010;53.640;10.578;2023-05-09T13:34:32;100761.19;;;24.03;33.37
59240;BME280;45010;53.640;10.578;2023-05-09T13:37:33;100763.84;;;24.03;33.53
59240;BME280;45010;53.640;10.578;2023-05-09T13:40:33;100762.00;;;24.04;33.42
59240;BME280;45010;53.640;10.578;2023-05-09T13:43:35;100745.06;;;23.98;33.30
59240;BME280;45010;53.640;10.578;2023-05-09T13:46:36;100749.50;;;24.04;33.53
59240;BME280;45010;53.640;10.578;2023-05-09T13:49:36;100743.16;;;24.05;33.20
59240;BME280;45010;53.640;10.578;2023-05-09T13:52:37;100752.16;;;24.04;33.38
59240;BME280;45010;53.640;10.578;2023-05-09T13:55:37;100745.00;;;24.05;33.24
59240;BME280;45010;53.640;10.578;2023-05-09T13:58:37;100733.50;;;24.04;33.58
59240;BME280;45010;53.640;10.578;2023-05-09T14:01:38;100732.50;;;24.05;33.48
59240;BME280;45010;53.640;10.578;2023-05-09T14:04:38;100721.84;;;24.05;33.29
59240;BME280;45010;53.640;10.578;2023-05-09T14:07:38;100728.78;;;24.07;33.42
59240;BME280;45010;53.640;10.578;2023-05-09T14:10:39;100720.19;;;24.04;33.18
59240;BME280;45010;53.640;10.578;2023-05-09T14:13:39;100721.84;;;24.05;33.39
59240;BME280;45010;53.640;10.578;2023-05-09T14:16:40;100731.44;;;24.07;33.33
59240;BME280;45010;53.640;10.578;2023-05-09T14:19:40;100716.50;;;24.05;33.59
59240;BME280;45010;53.640;10.578;2023-05-09T14:22:40;100715.47;;;24.07;33.45
59240;BME280;45010;53.640;10.578;2023-05-09T14:25:41;100714.63;;;24.06;33.51
59240;BME280;45010;53.640;10.578;2023-05-09T14:28:41;100682.75;;;23.87;33.60
59240;BME280;45010;53.640;10.578;2023-05-09T14:31:43;100707.47;;;24.07;33.34
59240;BME280;45010;53.640;10.578;2023-05-09T14:34:43;100699.47;;;24.07;33.45
59240;BME280;45010;53.640;10.578;2023-05-09T14:37:44;100698.47;;;24.08;33.15
59240;BME280;45010;53.640;10.578;2023-05-09T14:40:44;100698.47;;;24.08;33.32
59240;BME280;45010;53.640;10.578;2023-05-09T14:43:45;100689.88;;;24.05;33.24
59240;BME280;45010;53.640;10.578;2023-05-09T14:46:45;100688.59;;;24.08;33.44
59240;BME280;45010;53.640;10.578;2023-05-09T14:49:46;100679.00;;;24.07;33.49
59240;BME280;45010;53.640;10.578;2023-05-09T14:52:47;100675.50;;;24.07;33.17
59240;BME280;45010;53.640;10.578;2023-05-09T14:55:48;100669.16;;;24.08;33.46
59240;BME280;45010;53.640;10.578;2023-05-09T14:58:49;100666.50;;;24.08;33.31
59240;BME280;45010;53.640;10.578;2023-05-09T15:01:50;100661.16;;;24.08;33.58
59240;BME280;45010;53.640;10.578;2023-05-09T15:04:51;100661.16;;;24.08;33.47
59240;BME280;45010;53.640;10.578;2023-05-09T15:07:52;100655.84;;;24.08;33.36
59240;BME280;45010;53.640;10.578;2023-05-09T15:10:52;100645.19;;;24.08;33.28
59240;BME280;45010;53.640;10.578;2023-05-09T15:13:53;100639.84;;;24.08;33.39
59240;BME280;45010;53.640;10.578;2023-05-09T15:16:53;100621.97;;;23.96;33.33
59240;BME280;45010;53.640;10.578;2023-05-09T15:19:56;100634.53;;;24.08;33.29
59240;BME280;45010;53.640;10.578;2023-05-09T15:22:56;100631.84;;;24.08;33.24
59240;BME280;45010;53.640;10.578;2023-05-09T15:25:56;100624.66;;;24.08;33.32
59240;BME280;45010;53.640;10.578;2023-05-09T15:28:56;100619.34;;;24.08;33.31
59240;BME280;45010;53.640;10.578;2023-05-09T15:31:57;100620.16;;;24.09;33.38
59240;BME280;45010;53.640;10.578;2023-05-09T15:34:57;100620.16;;;24.09;33.30
59240;BME280;45010;53.640;10.578;2023-05-09T15:37:58;100615.66;;;24.09;33.16
59240;BME280;45010;53.640;10.578;2023-05-09T15:40:58;100614.81;;;24.09;33.71
59240;BME280;45010;53.640;10.578;2023-05-09T15:43:58;100614.81;;;24.09;33.44
59240;BME280;45010;53.640;10.578;2023-05-09T15:46:59;100601.34;;;24.03;33.46